PWSweather.com
Personal Weather Stations
Station Observations
PENICUIKWS
PenicuikGB

PenicuikGB

Lat: 55.830932, Lon: -3.224533000000065

Elevation: 166

Station Type: Fine Offset

http://weather.penicuik.org

High Low Average
Temperature 65.8°F18.8°C 35.8°F2.1°C 44.8°F7.1°C
Dew Point 43.0°F6.1°C 32.0°F0.0°C 36.5°F2.5°C
Winds 3.7 mph 6.0 kmh Calm Calm 1.0 mph S1.6 kmh S
Wind Gusts 6.0 mph9.7 kmh -- 2.0 mph3.2 kmh
Humidity 94% 37% 75%
Pressure 30.16 in1021.3 mb 29.98 in1015.2 mb -
Precipitation 0.00 in0.0 mm - -
Hour Temp Dew Point Humidity Winds Wind Gusts Pressure Precip Precip Rate Daily Precip Total
12:00 AM 40.1°F4.5°C 37.1°F2.8°C 89% 0.2 mph S0.3 kmh S 1.6 mph2.6 kmh 30.00 in1015.9 mb 0.00 in0.0 mm 0.00 in0.0 mm 0.00 in0.0 mm
12:15 AM 40.1°F4.5°C 37.1°F2.8°C 89% 0.6 mph SW1.0 kmh SW 1.6 mph2.6 kmh 30.01 in1016.3 mb 0.00 in0.0 mm 0.00 in0.0 mm 0.00 in0.0 mm
12:30 AM 39.7°F4.3°C 36.8°F2.7°C 89% 0.2 mph SW0.3 kmh SW 1.6 mph2.6 kmh 30.00 in1015.9 mb 0.00 in0.0 mm 0.00 in0.0 mm 0.00 in0.0 mm
12:45 AM 39.6°F4.2°C 36.6°F2.6°C 89% 0.1 mph SW0.2 kmh SW 0.7 mph1.1 kmh 30.00 in1015.9 mb 0.00 in0.0 mm 0.00 in0.0 mm 0.00 in0.0 mm
01:00 AM 39.6°F4.2°C 36.6°F2.6°C 89% 0.6 mph SSW1.0 kmh SSW 1.6 mph2.6 kmh 29.99 in1015.6 mb 0.00 in0.0 mm 0.00 in0.0 mm 0.00 in0.0 mm
01:15 AM 39.7°F4.3°C 36.8°F2.7°C 89% 1.4 mph SW2.3 kmh SW 2.2 mph3.5 kmh 29.99 in1015.6 mb 0.00 in0.0 mm 0.00 in0.0 mm 0.00 in0.0 mm
01:30 AM 39.9°F4.4°C 37.5°F3.1°C 91% 1.8 mph SW2.9 kmh SW 2.2 mph3.5 kmh 29.99 in1015.6 mb 0.00 in0.0 mm 0.00 in0.0 mm 0.00 in0.0 mm
01:45 AM 40.1°F4.5°C 37.7°F3.2°C 91% 1.3 mph SSW2.1 kmh SSW 2.2 mph3.5 kmh 29.99 in1015.6 mb 0.00 in0.0 mm 0.00 in0.0 mm 0.00 in0.0 mm
02:00 AM 39.9°F4.4°C 37.5°F3.1°C 91% 0.3 mph SW0.5 kmh SW 0.7 mph1.1 kmh 29.99 in1015.6 mb 0.00 in0.0 mm 0.00 in0.0 mm 0.00 in0.0 mm
02:15 AM 39.9°F4.4°C 37.2°F2.9°C 90% 0.8 mph SSW1.3 kmh SSW 1.6 mph2.6 kmh 29.98 in1015.2 mb 0.00 in0.0 mm 0.00 in0.0 mm 0.00 in0.0 mm
02:45 AM 39.6°F4.2°C 36.9°F2.7°C 90% 0.7 mph SW1.1 kmh SW 1.6 mph2.6 kmh 29.98 in1015.2 mb 0.00 in0.0 mm 0.00 in0.0 mm 0.00 in0.0 mm
03:15 AM 39.0°F3.9°C 36.9°F2.7°C 92% 0.9 mph SW1.4 kmh SW 1.6 mph2.6 kmh 29.98 in1015.2 mb 0.00 in0.0 mm 0.00 in0.0 mm 0.00 in0.0 mm
03:30 AM 38.8°F3.8°C 36.7°F2.6°C 92% 0.3 mph SW0.5 kmh SW 1.6 mph2.6 kmh 29.98 in1015.2 mb 0.00 in0.0 mm 0.00 in0.0 mm 0.00 in0.0 mm
03:45 AM 38.7°F3.7°C 36.5°F2.5°C 92% 0.7 mph SW1.1 kmh SW 1.6 mph2.6 kmh 29.98 in1015.2 mb 0.00 in0.0 mm 0.00 in0.0 mm 0.00 in0.0 mm
04:00 AM 38.5°F3.6°C 36.4°F2.4°C 92% 0.8 mph SW1.3 kmh SW 1.6 mph2.6 kmh 29.98 in1015.2 mb 0.00 in0.0 mm 0.00 in0.0 mm 0.00 in0.0 mm
04:15 AM 38.1°F3.4°C 36.0°F2.2°C 92% 0.6 mph SW1.0 kmh SW 1.6 mph2.6 kmh 29.98 in1015.2 mb 0.00 in0.0 mm 0.00 in0.0 mm 0.00 in0.0 mm
04:45 AM 38.1°F3.4°C 36.0°F2.2°C 92% 0.6 mph SW1.0 kmh SW 1.6 mph2.6 kmh 29.98 in1015.2 mb 0.00 in0.0 mm 0.00 in0.0 mm 0.00 in0.0 mm
05:00 AM 38.7°F3.7°C 36.8°F2.7°C 93% 0.5 mph SW0.8 kmh SW 1.6 mph2.6 kmh 29.98 in1015.2 mb 0.00 in0.0 mm 0.00 in0.0 mm 0.00 in0.0 mm
05:15 AM 38.5°F3.6°C 36.6°F2.6°C 93% 0.4 mph SW0.6 kmh SW 1.6 mph2.6 kmh 29.98 in1015.2 mb 0.00 in0.0 mm 0.00 in0.0 mm 0.00 in0.0 mm
05:30 AM 38.1°F3.4°C 36.3°F2.4°C 93% 0.3 mph SW0.5 kmh SW 1.6 mph2.6 kmh 29.99 in1015.6 mb 0.00 in0.0 mm 0.00 in0.0 mm 0.00 in0.0 mm
05:45 AM 37.9°F3.3°C 36.1°F2.3°C 93% 0.3 mph S0.5 kmh S 1.6 mph2.6 kmh 29.99 in1015.6 mb 0.00 in0.0 mm 0.00 in0.0 mm 0.00 in0.0 mm
06:00 AM 37.9°F3.3°C 36.1°F2.3°C 93% 0.7 mph SSW1.1 kmh SSW 1.6 mph2.6 kmh 30.00 in1015.9 mb 0.00 in0.0 mm 0.00 in0.0 mm 0.00 in0.0 mm
06:15 AM 37.9°F3.3°C 36.1°F2.3°C 93% Calm Calm -- 30.00 in1015.9 mb 0.00 in0.0 mm 0.00 in0.0 mm 0.00 in0.0 mm
06:30 AM 37.9°F3.3°C 36.1°F2.3°C 93% 0.7 mph S1.1 kmh S 1.6 mph2.6 kmh 30.00 in1015.9 mb 0.00 in0.0 mm 0.00 in0.0 mm 0.00 in0.0 mm
06:45 AM 37.9°F3.3°C 36.1°F2.3°C 93% 0.2 mph SW0.3 kmh SW 0.7 mph1.1 kmh 30.00 in1015.9 mb 0.00 in0.0 mm 0.00 in0.0 mm 0.00 in0.0 mm
07:00 AM 37.9°F3.3°C 36.4°F2.4°C 94% 0.2 mph SW0.3 kmh SW 0.7 mph1.1 kmh 30.01 in1016.3 mb 0.00 in0.0 mm 0.00 in0.0 mm 0.00 in0.0 mm
07:15 AM 38.5°F3.6°C 36.9°F2.7°C 94% Calm Calm -- 30.01 in1016.3 mb 0.00 in0.0 mm 0.00 in0.0 mm 0.00 in0.0 mm
07:30 AM 39.0°F3.9°C 37.4°F3.0°C 94% 0.8 mph S1.3 kmh S 1.6 mph2.6 kmh 30.02 in1016.6 mb 0.00 in0.0 mm 0.00 in0.0 mm 0.00 in0.0 mm
07:45 AM 39.9°F4.4°C 38.3°F3.5°C 94% 1.1 mph SSW1.8 kmh SSW 1.6 mph2.6 kmh 30.02 in1016.6 mb 0.00 in0.0 mm 0.00 in0.0 mm 0.00 in0.0 mm
08:00 AM 41.2°F5.1°C 39.3°F4.1°C 93% 0.4 mph SW0.6 kmh SW 1.6 mph2.6 kmh 30.02 in1016.6 mb 0.00 in0.0 mm 0.00 in0.0 mm 0.00 in0.0 mm
08:15 AM 42.3°F5.7°C 40.7°F4.8°C 94% 1.0 mph SSW1.6 kmh SSW 2.2 mph3.5 kmh 30.03 in1016.9 mb 0.00 in0.0 mm 0.00 in0.0 mm 0.00 in0.0 mm
08:30 AM 43.7°F6.5°C 41.8°F5.4°C 93% 1.5 mph S2.4 kmh S 2.2 mph3.5 kmh 30.02 in1016.6 mb 0.00 in0.0 mm 0.00 in0.0 mm 0.00 in0.0 mm
08:45 AM 46.4°F8.0°C 43.0°F6.1°C 88% 0.3 mph WNW0.5 kmh WNW 1.6 mph2.6 kmh 30.04 in1017.3 mb 0.00 in0.0 mm 0.00 in0.0 mm 0.00 in0.0 mm
09:00 AM 47.5°F8.6°C 40.0°F4.4°C 75% 2.2 mph S3.5 kmh S 3.1 mph5.0 kmh 30.04 in1017.3 mb 0.00 in0.0 mm 0.00 in0.0 mm 0.00 in0.0 mm
09:15 AM 50.4°F10.2°C 39.1°F3.9°C 65% 2.2 mph S3.5 kmh S 3.1 mph5.0 kmh 30.04 in1017.3 mb 0.00 in0.0 mm 0.00 in0.0 mm 0.00 in0.0 mm
09:30 AM 53.6°F12.0°C 40.1°F4.5°C 60% 1.8 mph S2.9 kmh S 3.1 mph5.0 kmh 30.03 in1016.9 mb 0.00 in0.0 mm 0.00 in0.0 mm 0.00 in0.0 mm
09:45 AM 56.7°F13.7°C 39.7°F4.3°C 53% 1.7 mph NNE2.7 kmh NNE 3.1 mph5.0 kmh 30.04 in1017.3 mb 0.00 in0.0 mm 0.00 in0.0 mm 0.00 in0.0 mm
10:00 AM 59.0°F15.0°C 38.8°F3.8°C 47% 2.0 mph NNE3.2 kmh NNE 2.2 mph3.5 kmh 30.03 in1016.9 mb 0.00 in0.0 mm 0.00 in0.0 mm 0.00 in0.0 mm
10:15 AM 58.5°F14.7°C 40.4°F4.7°C 51% 2.0 mph E3.2 kmh E 3.8 mph6.1 kmh 30.04 in1017.3 mb 0.00 in0.0 mm 0.00 in0.0 mm 0.00 in0.0 mm
10:30 AM 55.0°F12.8°C 36.8°F2.7°C 50% 1.9 mph N3.1 kmh N 3.1 mph5.0 kmh 30.04 in1017.3 mb 0.00 in0.0 mm 0.00 in0.0 mm 0.00 in0.0 mm
11:00 AM 59.9°F15.5°C 40.2°F4.6°C 48% 1.6 mph NE2.6 kmh NE 2.2 mph3.5 kmh 30.04 in1017.3 mb 0.00 in0.0 mm 0.00 in0.0 mm 0.00 in0.0 mm
11:15 AM 61.7°F16.5°C 37.8°F3.2°C 41% 2.1 mph NNE3.4 kmh NNE 3.1 mph5.0 kmh 30.04 in1017.3 mb 0.00 in0.0 mm 0.00 in0.0 mm 0.00 in0.0 mm
11:30 AM 63.9°F17.7°C 38.4°F3.6°C 39% 1.7 mph ENE2.7 kmh ENE 2.2 mph3.5 kmh 30.04 in1017.3 mb 0.00 in0.0 mm 0.00 in0.0 mm 0.00 in0.0 mm
11:45 AM 64.2°F17.9°C 37.4°F3.0°C 37% 2.3 mph NE3.7 kmh NE 3.1 mph5.0 kmh 30.04 in1017.3 mb 0.00 in0.0 mm 0.00 in0.0 mm 0.00 in0.0 mm
12:00 PM 65.8°F18.8°C 38.9°F3.8°C 37% 1.1 mph N1.8 kmh N 2.2 mph3.5 kmh 30.04 in1017.3 mb 0.00 in0.0 mm 0.00 in0.0 mm 0.00 in0.0 mm
12:30 PM 55.4°F13.0°C 34.4°F1.3°C 45% 2.0 mph N3.2 kmh N 3.1 mph5.0 kmh 30.04 in1017.3 mb 0.00 in0.0 mm 0.00 in0.0 mm 0.00 in0.0 mm
12:45 PM 53.6°F12.0°C 34.9°F1.6°C 49% 1.7 mph N2.7 kmh N 2.2 mph3.5 kmh 30.04 in1017.3 mb 0.00 in0.0 mm 0.00 in0.0 mm 0.00 in0.0 mm
01:00 PM 52.2°F11.2°C 34.6°F1.4°C 51% 1.9 mph N3.1 kmh N 3.1 mph5.0 kmh 30.05 in1017.6 mb 0.00 in0.0 mm 0.00 in0.0 mm 0.00 in0.0 mm
01:15 PM 52.3°F11.3°C 35.2°F1.8°C 52% 1.7 mph NNE2.7 kmh NNE 2.2 mph3.5 kmh 30.05 in1017.6 mb 0.00 in0.0 mm 0.00 in0.0 mm 0.00 in0.0 mm
01:30 PM 53.6°F12.0°C 35.9°F2.2°C 51% 1.6 mph NNE2.6 kmh NNE 2.2 mph3.5 kmh 30.05 in1017.6 mb 0.00 in0.0 mm 0.00 in0.0 mm 0.00 in0.0 mm
01:45 PM 53.1°F11.7°C 34.9°F1.6°C 50% 3.7 mph N6.0 kmh N 5.4 mph8.7 kmh 30.05 in1017.6 mb 0.00 in0.0 mm 0.00 in0.0 mm 0.00 in0.0 mm
02:00 PM 53.1°F11.7°C 35.4°F1.9°C 51% 3.3 mph N5.3 kmh N 6.0 mph9.7 kmh 30.06 in1017.9 mb 0.00 in0.0 mm 0.00 in0.0 mm 0.00 in0.0 mm
02:15 PM 54.7°F12.6°C 36.4°F2.4°C 50% 2.3 mph N3.7 kmh N 3.8 mph6.1 kmh 30.05 in1017.6 mb 0.00 in0.0 mm 0.00 in0.0 mm 0.00 in0.0 mm
02:30 PM 54.0°F12.2°C 35.8°F2.1°C 50% 1.6 mph NE2.6 kmh NE 3.1 mph5.0 kmh 30.05 in1017.6 mb 0.00 in0.0 mm 0.00 in0.0 mm 0.00 in0.0 mm
02:45 PM 53.1°F11.7°C 35.9°F2.2°C 52% 1.7 mph N2.7 kmh N 3.1 mph5.0 kmh 30.04 in1017.3 mb 0.00 in0.0 mm 0.00 in0.0 mm 0.00 in0.0 mm
03:00 PM 52.7°F11.5°C 36.1°F2.3°C 53% 1.0 mph SSE1.6 kmh SSE 1.6 mph2.6 kmh 30.05 in1017.6 mb 0.00 in0.0 mm 0.00 in0.0 mm 0.00 in0.0 mm
03:15 PM 53.6°F12.0°C 35.9°F2.2°C 51% 1.9 mph N3.1 kmh N 3.1 mph5.0 kmh 30.05 in1017.6 mb 0.00 in0.0 mm 0.00 in0.0 mm 0.00 in0.0 mm
03:30 PM 52.5°F11.4°C 36.4°F2.4°C 54% 0.5 mph N0.8 kmh N 1.6 mph2.6 kmh 30.06 in1017.9 mb 0.00 in0.0 mm 0.00 in0.0 mm 0.00 in0.0 mm
03:45 PM 50.2°F10.1°C 36.0°F2.2°C 58% 0.1 mph SW0.2 kmh SW 0.7 mph1.1 kmh 30.06 in1017.9 mb 0.00 in0.0 mm 0.00 in0.0 mm 0.00 in0.0 mm
04:00 PM 49.3°F9.6°C 36.8°F2.7°C 62% 0.3 mph N0.5 kmh N 1.6 mph2.6 kmh 30.06 in1017.9 mb 0.00 in0.0 mm 0.00 in0.0 mm 0.00 in0.0 mm
04:15 PM 48.9°F9.4°C 36.9°F2.7°C 63% Calm Calm 0.7 mph1.1 kmh 30.06 in1017.9 mb 0.00 in0.0 mm 0.00 in0.0 mm 0.00 in0.0 mm
04:30 PM 48.7°F9.3°C 36.7°F2.6°C 63% 0.3 mph W0.5 kmh W 1.6 mph2.6 kmh 30.06 in1017.9 mb 0.00 in0.0 mm 0.00 in0.0 mm 0.00 in0.0 mm
05:00 PM 48.7°F9.3°C 36.7°F2.6°C 63% 1.0 mph SW1.6 kmh SW 2.2 mph3.5 kmh 30.07 in1018.3 mb 0.00 in0.0 mm 0.00 in0.0 mm 0.00 in0.0 mm
05:15 PM 47.3°F8.5°C 36.1°F2.3°C 65% 0.3 mph SSE0.5 kmh SSE 0.7 mph1.1 kmh 30.07 in1018.3 mb 0.00 in0.0 mm 0.00 in0.0 mm 0.00 in0.0 mm
05:30 PM 46.2°F7.9°C 35.5°F1.9°C 66% 0.2 mph WNW0.3 kmh WNW 0.7 mph1.1 kmh 30.08 in1018.6 mb 0.00 in0.0 mm 0.00 in0.0 mm 0.00 in0.0 mm
05:45 PM 45.3°F7.4°C 35.8°F2.1°C 69% 0.8 mph SW1.3 kmh SW 1.6 mph2.6 kmh 30.08 in1018.6 mb 0.00 in0.0 mm 0.00 in0.0 mm 0.00 in0.0 mm
06:00 PM 44.2°F6.8°C 36.1°F2.3°C 73% 1.5 mph SW2.4 kmh SW 1.6 mph2.6 kmh 30.09 in1019.0 mb 0.00 in0.0 mm 0.00 in0.0 mm 0.00 in0.0 mm
06:15 PM 43.2°F6.2°C 36.1°F2.3°C 76% 1.7 mph SSW2.7 kmh SSW 2.2 mph3.5 kmh 30.10 in1019.3 mb 0.00 in0.0 mm 0.00 in0.0 mm 0.00 in0.0 mm
06:30 PM 42.3°F5.7°C 36.5°F2.5°C 80% 1.6 mph SW2.6 kmh SW 1.6 mph2.6 kmh 30.10 in1019.3 mb 0.00 in0.0 mm 0.00 in0.0 mm 0.00 in0.0 mm
06:45 PM 41.7°F5.4°C 36.3°F2.4°C 81% 1.6 mph SW2.6 kmh SW 2.2 mph3.5 kmh 30.11 in1019.6 mb 0.00 in0.0 mm 0.00 in0.0 mm 0.00 in0.0 mm
07:00 PM 41.5°F5.3°C 36.5°F2.5°C 82% 1.6 mph SSW2.6 kmh SSW 3.1 mph5.0 kmh 30.11 in1019.6 mb 0.00 in0.0 mm 0.00 in0.0 mm 0.00 in0.0 mm
07:15 PM 41.5°F5.3°C 36.8°F2.7°C 83% 1.7 mph SW2.7 kmh SW 2.2 mph3.5 kmh 30.12 in1020.0 mb 0.00 in0.0 mm 0.00 in0.0 mm 0.00 in0.0 mm
07:30 PM 41.4°F5.2°C 36.6°F2.6°C 83% 1.2 mph SW1.9 kmh SW 2.2 mph3.5 kmh 30.13 in1020.3 mb 0.00 in0.0 mm 0.00 in0.0 mm 0.00 in0.0 mm
07:45 PM 42.1°F5.6°C 37.6°F3.1°C 84% 1.5 mph SW2.4 kmh SW 2.2 mph3.5 kmh 30.12 in1020.0 mb 0.00 in0.0 mm 0.00 in0.0 mm 0.00 in0.0 mm
08:00 PM 42.3°F5.7°C 37.8°F3.2°C 84% 1.8 mph SW2.9 kmh SW 2.2 mph3.5 kmh 30.13 in1020.3 mb 0.00 in0.0 mm 0.00 in0.0 mm 0.00 in0.0 mm
08:15 PM 42.1°F5.6°C 37.3°F2.9°C 83% 3.1 mph SSW5.0 kmh SSW 3.8 mph6.1 kmh 30.14 in1020.7 mb 0.00 in0.0 mm 0.00 in0.0 mm 0.00 in0.0 mm
08:30 PM 41.0°F5.0°C 35.9°F2.2°C 82% 2.0 mph WSW3.2 kmh WSW 4.5 mph7.2 kmh 30.14 in1020.7 mb 0.00 in0.0 mm 0.00 in0.0 mm 0.00 in0.0 mm
08:45 PM 40.1°F4.5°C 35.4°F1.9°C 83% 1.6 mph NW2.6 kmh NW 4.5 mph7.2 kmh 30.14 in1020.7 mb 0.00 in0.0 mm 0.00 in0.0 mm 0.00 in0.0 mm
09:00 PM 39.2°F4.0°C 34.5°F1.4°C 83% 0.5 mph WNW0.8 kmh WNW 0.7 mph1.1 kmh 30.14 in1020.7 mb 0.00 in0.0 mm 0.00 in0.0 mm 0.00 in0.0 mm
09:15 PM 38.8°F3.8°C 34.7°F1.5°C 85% 1.1 mph N1.8 kmh N 2.2 mph3.5 kmh 30.15 in1021.0 mb 0.00 in0.0 mm 0.00 in0.0 mm 0.00 in0.0 mm
09:30 PM 38.7°F3.7°C 34.8°F1.6°C 86% 0.8 mph SSW1.3 kmh SSW 1.6 mph2.6 kmh 30.15 in1021.0 mb 0.00 in0.0 mm 0.00 in0.0 mm 0.00 in0.0 mm
09:45 PM 37.9°F3.3°C 34.4°F1.3°C 87% 0.4 mph NW0.6 kmh NW 1.6 mph2.6 kmh 30.16 in1021.3 mb 0.00 in0.0 mm 0.00 in0.0 mm 0.00 in0.0 mm
10:00 PM 37.0°F2.8°C 32.4°F0.2°C 83% 0.4 mph NNW0.6 kmh NNW 1.6 mph2.6 kmh 30.14 in1020.7 mb 0.00 in0.0 mm 0.00 in0.0 mm 0.00 in0.0 mm
10:15 PM 37.0°F2.8°C 32.7°F0.4°C 84% 0.8 mph W1.3 kmh W 1.6 mph2.6 kmh 30.14 in1020.7 mb 0.00 in0.0 mm 0.00 in0.0 mm 0.00 in0.0 mm
10:30 PM 36.7°F2.6°C 32.3°F0.2°C 84% 0.2 mph W0.3 kmh W 1.6 mph2.6 kmh 30.14 in1020.7 mb 0.00 in0.0 mm 0.00 in0.0 mm 0.00 in0.0 mm
10:45 PM 36.3°F2.4°C 32.3°F0.2°C 85% 0.4 mph NW0.6 kmh NW 0.7 mph1.1 kmh 30.15 in1021.0 mb 0.00 in0.0 mm 0.00 in0.0 mm 0.00 in0.0 mm
11:00 PM 36.3°F2.4°C 32.3°F0.2°C 85% 0.6 mph NW1.0 kmh NW 1.6 mph2.6 kmh 30.14 in1020.7 mb 0.00 in0.0 mm 0.00 in0.0 mm 0.00 in0.0 mm
11:15 PM 36.0°F2.2°C 32.2°F0.1°C 86% 0.5 mph WNW0.8 kmh WNW 1.6 mph2.6 kmh 30.15 in1021.0 mb 0.00 in0.0 mm 0.00 in0.0 mm 0.00 in0.0 mm
11:30 PM 35.8°F2.1°C 32.0°F0.0°C 86% Calm Calm -- 30.14 in1020.7 mb 0.00 in0.0 mm 0.00 in0.0 mm 0.00 in0.0 mm
11:45 PM 35.8°F2.1°C 32.0°F0.0°C 86% Calm Calm -- 30.14 in1020.7 mb 0.00 in0.0 mm 0.00 in0.0 mm 0.00 in0.0 mm